Time;durP1;ratioP1;P1;durP2;ratioP2;P2;SDS_P1;SDS_P2;PMS_P1;PMS_P2;Temp;Humidity;BMP_temperature;BMP_pressure;BME280_temperature;BME280_humidity;BME280_pressure;Samples;Min_cycle;Max_cycle;Signal;HPM_P1;HPM_P2
2024/01/18 00:01:37;;;;;;;18.52;9.70;;;;;;;-4.91;98.46;101427.56;10254127;28;20050;-79
2024/01/18 00:06:38;;;;;;;15.73;9.75;;;;;;;-4.91;97.92;101422.41;10252714;28;20527;-79
2024/01/18 00:11:39;;;;;;;20.20;10.82;;;;;;;-5.02;97.47;101421.88;10253540;29;20050;-78
2024/01/18 00:16:39;;;;;;;20.20;9.70;;;;;;;-5.51;97.20;101364.44;10250692;28;20119;-79
2024/01/18 00:21:40;;;;;;;18.52;9.32;;;;;;;-5.48;97.07;101363.53;10242692;29;20036;-79
2024/01/18 00:26:41;;;;;;;15.70;9.10;;;;;;;-5.21;97.03;101424.09;10227402;29;20058;-80
2024/01/18 00:31:42;;;;;;;15.82;9.63;;;;;;;-5.13;96.97;101428.16;10238709;29;20035;-80
2024/01/18 00:36:42;;;;;;;16.10;9.75;;;;;;;-5.44;97.20;101367.72;10252922;29;20042;-81
2024/01/18 00:41:43;;;;;;;17.80;9.27;;;;;;;-5.31;97.20;101405.34;10252289;29;20082;-80
2024/01/18 00:46:44;;;;;;;18.17;9.90;;;;;;;-5.17;97.18;101436.94;10251529;29;20054;-80
2024/01/18 00:51:45;;;;;;;19.08;9.90;;;;;;;-5.27;97.22;101420.75;10252194;28;20051;-79
2024/01/18 00:56:45;;;;;;;17.92;9.85;;;;;;;-5.41;96.74;101406.50;10251871;28;20554;-81
2024/01/18 01:01:46;;;;;;;16.67;9.23;;;;;;;-5.42;96.69;101409.97;10250185;29;20043;-81
2024/01/18 01:06:47;;;;;;;16.92;9.43;;;;;;;-5.49;96.64;101413.63;10251632;28;20046;-79
2024/01/18 01:11:47;;;;;;;16.50;9.90;;;;;;;-5.67;96.80;101366.59;10250904;28;20098;-82
2024/01/18 01:16:48;;;;;;;18.75;9.60;;;;;;;-5.45;96.98;101392.75;10254965;28;20455;-81
2024/01/18 01:21:49;;;;;;;15.98;9.07;;;;;;;-5.81;96.82;101356.59;10259598;28;20043;-79
2024/01/18 01:26:50;;;;;;;17.90;8.85;;;;;;;-5.73;97.00;101369.34;10259556;28;20081;-82
2024/01/18 01:31:52;;;;;;;18.27;8.82;;;;;;;-5.76;96.70;101377.19;10258727;29;20102;-81
2024/01/18 01:36:53;;;;;;;16.10;8.80;;;;;;;-5.71;96.84;101385.69;10253471;28;20070;-83
2024/01/18 01:41:54;;;;;;;17.35;9.85;;;;;;;-5.85;96.62;101374.81;10251878;29;20089;-86
2024/01/18 01:46:55;;;;;;;14.90;8.80;;;;;;;-5.82;96.79;101362.66;10257484;28;20184;-86
2024/01/18 01:51:56;;;;;;;16.83;9.00;;;;;;;-5.77;97.02;101372.91;10258158;28;20047;-86
2024/01/18 02:02:23;;;;;;;19.15;9.13;;;;;;;-5.70;96.90;101382.19;10258523;28;20039;-77
2024/01/18 02:07:26;;;;;;;15.68;9.05;;;;;;;-5.74;97.47;101368.50;10257351;28;20072;-82
2024/01/18 02:12:27;;;;;;;17.33;8.00;;;;;;;-5.91;97.48;101313.72;10257556;28;20126;-84
2024/01/18 02:17:28;;;;;;;16.30;8.73;;;;;;;-5.66;97.63;101363.09;10257049;28;20073;-82
2024/01/18 02:22:32;;;;;;;14.55;8.32;;;;;;;-5.69;97.14;101339.88;10254208;29;20039;-82
2024/01/18 02:27:33;;;;;;;23.25;8.85;;;;;;;-5.71;97.13;101366.69;10254335;28;20143;-85
2024/01/18 02:32:33;;;;;;;17.70;9.80;;;;;;;-5.79;97.52;101360.00;10257151;28;20117;-86
2024/01/18 02:37:34;;;;;;;18.52;9.98;;;;;;;-6.00;97.00;101350.22;10255216;28;20046;-85
2024/01/18 02:42:35;;;;;;;19.70;10.02;;;;;;;-6.02;97.07;101337.31;10256385;28;20089;-84
2024/01/18 02:47:36;;;;;;;20.50;10.27;;;;;;;-6.07;96.77;101367.63;10256393;28;20047;-85
2024/01/18 02:52:38;;;;;;;28.23;11.13;;;;;;;-6.09;96.98;101377.16;10257179;28;20039;-83
2024/01/18 02:57:41;;;;;;;20.13;10.85;;;;;;;-6.02;98.49;101372.69;10246174;29;20143;-77
2024/01/18 03:03:00;;;;;;;20.92;11.20;;;;;;;-6.01;98.23;101351.13;10255253;28;20040;-79
2024/01/18 03:08:02;;;;;;;35.55;12.43;;;;;;;-5.83;98.16;101384.25;10256008;29;20051;-75
2024/01/18 03:13:03;;;;;;;59.60;13.35;;;;;;;-5.95;98.64;101358.72;10241511;29;20496;-74
2024/01/18 03:18:04;;;;;;;66.65;16.75;;;;;;;-6.06;98.45;101358.97;10215424;29;20051;-74
2024/01/18 03:23:04;;;;;;;57.55;14.82;;;;;;;-5.99;99.15;101391.56;10216191;29;20046;-77
2024/01/18 03:28:05;;;;;;;54.47;16.63;;;;;;;-6.43;99.21;101328.81;10215373;29;20048;-78
2024/01/18 03:33:24;;;;;;;26.77;13.48;;;;;;;-6.03;100.00;101386.50;10214706;29;20063;-89
2024/01/18 03:38:25;;;;;;;20.58;11.73;;;;;;;-6.14;100.00;101391.94;10214238;29;20392;-74
2024/01/18 03:43:26;;;;;;;22.23;13.07;;;;;;;-6.12;100.00;101392.75;10214682;29;20059;-72
2024/01/18 03:48:27;;;;;;;21.65;11.52;;;;;;;-6.16;100.00;101373.03;10218233;29;20039;-77
2024/01/18 03:53:28;;;;;;;23.25;12.20;;;;;;;-6.14;99.84;101393.66;10253965;28;20047;-76
2024/01/18 03:58:28;;;;;;;23.33;11.40;;;;;;;-6.53;98.70;101340.25;10253325;28;20074;-75
2024/01/18 04:03:29;;;;;;;19.25;11.38;;;;;;;-6.32;99.04;101350.97;10253777;28;20502;-81
2024/01/18 04:08:30;;;;;;;42.03;11.57;;;;;;;-6.01;99.28;101390.75;10253434;28;20043;-82
2024/01/18 04:13:30;;;;;;;34.45;11.60;;;;;;;-6.07;99.48;101397.78;10253104;28;20452;-77
2024/01/18 04:18:31;;;;;;;23.58;11.00;;;;;;;-6.10;99.73;101375.47;10253046;28;20043;-76
2024/01/18 04:23:32;;;;;;;31.55;12.20;;;;;;;-6.07;98.94;101403.84;10252880;28;20043;-78
2024/01/18 04:28:33;;;;;;;80.90;21.35;;;;;;;-6.36;98.18;101376.06;10252014;29;20070;-76
2024/01/18 04:33:33;;;;;;;106.82;29.23;;;;;;;-6.24;98.55;101393.88;10239242;28;20039;-79
2024/01/18 04:38:34;;;;;;;70.88;22.63;;;;;;;-6.28;98.57;101401.72;10227884;29;20049;-79
2024/01/18 04:43:35;;;;;;;39.03;17.13;;;;;;;-6.57;99.24;101351.56;10253013;28;20063;-79
2024/01/18 04:48:36;;;;;;;30.20;13.70;;;;;;;-6.24;98.99;101405.97;10254459;28;20138;-80
2024/01/18 04:53:37;;;;;;;21.80;11.32;;;;;;;-6.73;99.14;101314.00;10252232;28;20050;-81
2024/01/18 04:58:38;;;;;;;16.98;10.32;;;;;;;-6.05;99.48;101414.13;10254171;28;20043;-81
2024/01/18 05:14:17;;;;;;;20.58;11.00;;;;;;;-6.21;99.28;101343.81;10252635;28;20039;-81
2024/01/18 05:19:18;;;;;;;22.98;12.05;;;;;;;-5.80;99.28;101393.69;10254064;28;20508;-80
2024/01/18 05:24:19;;;;;;;19.95;11.00;;;;;;;-5.74;98.84;101393.53;10252775;28;20059;-80
2024/01/18 05:29:20;;;;;;;22.77;12.02;;;;;;;-5.64;98.58;101397.56;10252418;28;20032;-81
2024/01/18 05:34:20;;;;;;;20.42;11.73;;;;;;;-5.45;98.75;101391.91;10252224;28;20050;-81
2024/01/18 05:39:21;;;;;;;22.60;11.63;;;;;;;-5.12;99.31;101383.22;10251699;28;20066;-81
2024/01/18 05:44:22;;;;;;;21.30;12.18;;;;;;;-4.79;99.08;101390.09;10252717;28;20114;-82
2024/01/18 05:49:23;;;;;;;24.27;11.57;;;;;;;-4.83;98.66;101366.00;10251508;28;20047;-83
2024/01/18 05:54:24;;;;;;;17.58;10.75;;;;;;;-4.60;98.44;101348.03;10251833;28;20043;-82
2024/01/18 05:59:24;;;;;;;20.65;11.80;;;;;;;-4.06;97.79;101412.97;10250376;28;20110;-82
2024/01/18 06:04:25;;;;;;;18.95;10.57;;;;;;;-3.84;97.62;101408.78;10256990;28;20047;-82
2024/01/18 06:14:45;;;;;;;14.82;9.70;;;;;;;-3.79;96.93;101354.13;10258412;28;20215;-81
2024/01/18 06:19:46;;;;;;;15.18;9.75;;;;;;;-3.14;97.19;101415.06;10258619;28;20627;-80
2024/01/18 06:24:47;;;;;;;18.45;10.55;;;;;;;-3.14;96.89;101376.09;10257881;29;20415;-79
2024/01/18 06:29:48;;;;;;;15.57;9.18;;;;;;;-2.51;96.90;101413.66;10256662;28;20047;-81
2024/01/18 06:34:48;;;;;;;15.90;9.45;;;;;;;-2.20;96.94;101405.50;10257355;28;20102;-78
2024/01/18 06:39:50;;;;;;;13.82;9.02;;;;;;;-2.05;97.24;101380.59;10257504;29;20491;-79
2024/01/18 06:44:51;;;;;;;13.48;8.77;;;;;;;-1.77;96.75;101402.91;10256004;29;20090;-78
2024/01/18 06:55:11;;;;;;;16.45;10.00;;;;;;;-1.05;96.29;101395.47;10255836;28;20129;-78
2024/01/18 07:00:12;;;;;;;16.88;10.82;;;;;;;-0.71;95.94;101404.41;10256125;28;20472;-77
2024/01/18 07:05:13;;;;;;;18.13;11.52;;;;;;;-0.56;95.86;101395.88;10255832;28;20047;-77
2024/01/18 07:10:13;;;;;;;18.60;11.88;;;;;;;-0.50;95.45;101395.59;10255677;28;20043;-77
2024/01/18 07:15:15;;;;;;;17.42;11.50;;;;;;;-0.10;95.15;101400.69;10254152;28;20039;-78
2024/01/18 07:20:16;;;;;;;17.05;10.63;;;;;;;-0.09;94.77;101351.00;10255504;28;20039;-78
2024/01/18 07:25:17;;;;;;;19.60;12.10;;;;;;;0.44;94.03;101404.13;10255591;28;20499;-76
2024/01/18 07:30:18;;;;;;;18.88;12.32;;;;;;;0.49;93.89;101390.84;10255435;28;20043;-77
2024/01/18 07:45:57;;;;;;;23.10;14.15;;;;;;;0.63;93.97;101342.16;10254728;28;20393;-76
2024/01/18 07:50:58;;;;;;;23.42;15.32;;;;;;;1.16;93.40;101378.63;10254173;28;20048;-75
2024/01/18 07:55:59;;;;;;;23.98;16.00;;;;;;;1.26;93.11;101362.38;10254069;28;20047;-75
2024/01/18 08:01:00;;;;;;;26.00;16.10;;;;;;;1.19;93.10;101308.66;10254206;28;20066;-76
2024/01/18 08:06:00;;;;;;;24.67;16.15;;;;;;;1.81;92.83;101353.22;10253450;28;20043;-76
2024/01/18 08:11:01;;;;;;;26.17;16.63;;;;;;;2.11;92.21;101331.44;10253403;28;20047;-75
2024/01/18 08:16:02;;;;;;;26.95;17.55;;;;;;;2.16;91.95;101332.00;10253291;28;20046;-75
2024/01/18 08:21:04;;;;;;;24.33;16.45;;;;;;;2.26;92.12;101302.53;10253209;28;20515;-74
2024/01/18 08:31:24;;;;;;;26.55;16.52;;;;;;;2.83;92.15;101316.63;10253275;28;20046;-75
2024/01/18 08:36:25;;;;;;;24.02;17.23;;;;;;;2.71;91.66;101265.75;10252474;28;20524;-75
2024/01/18 08:41:26;;;;;;;22.90;15.90;;;;;;;3.31;90.79;101302.22;10251748;28;20443;-76
2024/01/18 08:46:27;;;;;;;26.73;17.45;;;;;;;3.48;90.45;101289.78;10251778;28;20046;-75
2024/01/18 08:51:27;;;;;;;25.88;17.67;;;;;;;3.33;89.53;101246.97;10251990;28;20066;-76
2024/01/18 08:56:28;;;;;;;25.38;16.48;;;;;;;3.73;89.77;101281.16;10251427;28;20035;-76
2024/01/18 09:01:29;;;;;;;25.25;15.80;;;;;;;3.91;88.72;101264.16;10251989;28;20067;-75
2024/01/18 09:06:30;;;;;;;23.40;16.05;;;;;;;3.97;88.75;101233.97;10251281;28;20463;-75
2024/01/18 09:16:50;;;;;;;18.25;13.25;;;;;;;4.53;88.39;101245.88;10251214;28;20408;-74
2024/01/18 09:21:50;;;;;;;17.42;12.05;;;;;;;4.45;86.90;101176.31;10252083;28;20047;-76
2024/01/18 09:26:51;;;;;;;16.92;11.13;;;;;;;4.84;84.37;101211.28;10250764;28;20102;-76
2024/01/18 09:31:53;;;;;;;13.80;10.27;;;;;;;5.02;83.60;101215.22;10251342;28;20099;-76
2024/01/18 09:36:54;;;;;;;12.52;9.75;;;;;;;5.09;82.71;101203.31;10253277;28;20035;-75
2024/01/18 09:41:55;;;;;;;14.57;9.02;;;;;;;5.11;81.07;101205.81;10259641;28;20106;-76
2024/01/18 09:46:57;;;;;;;12.93;8.32;;;;;;;5.14;79.47;101197.69;10258207;29;20055;-76
2024/01/18 09:51:59;;;;;;;9.48;6.72;;;;;;;5.25;77.14;101203.03;10258235;29;20039;-76
2024/01/18 09:57:01;;;;;;;10.55;7.03;;;;;;;5.31;76.97;101192.03;10258523;29;20082;-74
2024/01/18 10:07:21;;;;;;;8.65;6.07;;;;;;;5.41;75.39;101173.75;10258092;28;20459;-74
2024/01/18 10:23:01;;;;;;;11.18;6.05;;;;;;;5.54;73.09;101173.69;10257558;28;20038;-75
2024/01/18 10:28:02;;;;;;;8.18;5.95;;;;;;;5.42;72.92;101154.38;10257483;28;20035;-75
2024/01/18 10:33:03;;;;;;;11.55;6.25;;;;;;;5.23;73.27;101115.34;10257414;28;20043;-75
2024/01/18 10:38:06;;;;;;;10.60;6.72;;;;;;;5.40;74.72;101146.56;10257021;28;20043;-74
2024/01/18 10:43:07;;;;;;;10.88;7.00;;;;;;;5.30;74.25;101131.56;10256955;29;20408;-72
2024/01/18 10:48:08;;;;;;;8.30;5.50;;;;;;;5.40;73.70;101135.19;10254877;28;20058;-75
2024/01/18 10:53:10;;;;;;;7.55;4.78;;;;;;;5.33;72.35;101126.06;10256443;29;20063;-75
2024/01/18 10:58:11;;;;;;;9.95;4.90;;;;;;;5.28;72.42;101109.75;10256856;28;20035;-73
2024/01/18 11:03:15;;;;;;;8.07;4.65;;;;;;;5.13;71.33;101109.09;10255567;29;20623;-74
2024/01/18 11:08:17;;;;;;;7.25;4.40;;;;;;;5.25;72.21;101116.09;10256387;29;20400;-74
2024/01/18 11:24:06;;;;;;;6.65;3.92;;;;;;;5.07;69.36;101102.50;10255859;28;20051;-74
2024/01/18 11:29:18;;;;;;;5.55;3.55;;;;;;;5.11;67.63;101122.38;10255121;28;20103;-74
2024/01/18 11:34:39;;;;;;;8.40;3.60;;;;;;;5.08;67.67;101108.59;10254829;28;20043;-74
2024/01/18 11:39:48;;;;;;;7.63;3.70;;;;;;;4.91;68.55;101121.22;10253733;28;20504;-74
2024/01/18 11:45:08;;;;;;;7.32;4.22;;;;;;;4.86;70.43;101115.47;10254879;29;20063;-74
2024/01/18 11:50:11;;;;;;;10.10;4.85;;;;;;;4.87;72.12;101103.13;10253726;29;20047;-74
2024/01/18 11:55:14;;;;;;;7.60;5.10;;;;;;;4.85;73.16;101110.31;10254203;29;20102;-73
2024/01/18 12:05:35;;;;;;;8.55;5.93;;;;;;;4.27;73.42;101039.88;10253657;28;20039;-73
2024/01/18 12:15:55;;;;;;;9.45;6.10;;;;;;;4.37;74.17;101097.97;10252880;29;20047;-75
2024/01/18 12:26:23;;;;;;;11.07;6.68;;;;;;;3.79;77.34;101034.53;10253107;28;20044;-73
2024/01/18 12:31:24;;;;;;;9.52;6.90;;;;;;;3.78;78.07;101058.31;10252988;28;20046;-75
2024/01/18 12:36:25;;;;;;;10.27;7.28;;;;;;;3.63;78.62;101044.44;10251969;29;20070;-74
2024/01/18 12:41:26;;;;;;;10.13;7.32;;;;;;;3.64;79.20;101069.75;10252418;29;20090;-75
2024/01/18 12:46:27;;;;;;;9.55;6.50;;;;;;;3.41;79.96;101050.31;10248446;29;20467;-75
2024/01/18 12:51:29;;;;;;;10.35;6.50;;;;;;;3.14;80.73;101042.50;10246312;29;20417;-75
2024/01/18 12:56:29;;;;;;;9.10;6.07;;;;;;;3.06;81.67;101050.91;10249332;28;20054;-73
2024/01/18 13:01:52;;;;;;;10.02;6.78;;;;;;;2.90;84.02;101043.22;10250982;29;20066;-73
2024/01/18 13:06:57;;;;;;;12.30;7.47;;;;;;;2.70;83.24;101043.69;10249967;29;20043;-74
2024/01/18 13:17:22;;;;;;;11.15;6.75;;;;;;;2.26;84.43;101035.13;10251689;28;20047;-74
2024/01/18 13:22:23;;;;;;;18.05;6.85;;;;;;;2.26;85.15;101057.88;10250733;28;20045;-76
2024/01/18 13:27:24;;;;;;;14.07;6.55;;;;;;;2.18;85.65;101057.50;10250858;29;20051;-74
2024/01/18 13:32:24;;;;;;;15.02;7.28;;;;;;;2.08;86.55;101067.72;10247554;29;20094;-75
2024/01/18 13:37:25;;;;;;;17.98;7.60;;;;;;;1.99;87.19;101069.16;10251055;28;20043;-74
2024/01/18 13:42:26;;;;;;;16.60;7.28;;;;;;;1.92;87.50;101077.50;10250758;29;20511;-79
2024/01/18 13:52:47;;;;;;;11.23;6.57;;;;;;;1.67;88.23;101058.00;10246168;28;20077;-77
2024/01/18 13:57:48;;;;;;;21.55;8.32;;;;;;;1.51;88.88;101057.28;10250786;28;20452;-78
2024/01/18 14:02:49;;;;;;;12.32;7.13;;;;;;;1.39;88.96;101056.22;10250223;29;20090;-77
2024/01/18 14:13:08;;;;;;;12.40;6.95;;;;;;;1.38;90.47;101065.03;10250104;28;20210;-76
2024/01/18 14:18:10;;;;;;;16.67;7.85;;;;;;;1.34;90.75;101069.56;10249867;28;20554;-76
2024/01/18 14:23:11;;;;;;;9.93;6.88;;;;;;;1.27;90.93;101064.81;10251073;28;20043;-76
2024/01/18 14:28:13;;;;;;;13.50;7.63;;;;;;;1.17;91.36;101074.13;10257119;28;20046;-76
2024/01/18 14:33:13;;;;;;;18.35;7.85;;;;;;;1.08;91.10;101072.91;10256287;29;20085;-77
2024/01/18 14:38:14;;;;;;;13.82;7.10;;;;;;;0.96;91.60;101050.91;10256385;29;20567;-77
2024/01/18 14:43:15;;;;;;;14.10;6.90;;;;;;;0.76;91.73;101022.44;10255606;29;20055;-75
2024/01/18 14:48:16;;;;;;;10.80;6.50;;;;;;;1.04;91.42;101066.97;10256977;28;20524;-76
2024/01/18 14:53:17;;;;;;;14.48;7.13;;;;;;;0.72;91.87;101016.56;10245282;28;20048;-75
2024/01/18 14:58:18;;;;;;;11.65;6.72;;;;;;;1.05;91.87;101087.00;10251275;29;20042;-75
2024/01/18 15:03:19;;;;;;;11.23;6.80;;;;;;;0.87;92.27;101065.34;10256550;29;20047;-76
2024/01/18 15:08:20;;;;;;;12.23;6.82;;;;;;;0.84;92.21;101086.47;10255408;29;20039;-76
2024/01/18 15:13:21;;;;;;;10.57;7.15;;;;;;;0.75;92.12;101078.28;10256275;29;20046;-76
2024/01/18 15:18:22;;;;;;;11.75;7.22;;;;;;;0.69;92.65;101076.88;10254843;29;20499;-76
2024/01/18 15:23:41;;;;;;;16.00;7.70;;;;;;;0.62;92.96;101072.91;10254838;29;20047;-76
2024/01/18 15:28:43;;;;;;;24.08;12.38;;;;;;;0.43;92.85;101063.47;10255153;28;20045;-76
2024/01/18 15:33:44;;;;;;;17.08;9.27;;;;;;;0.26;93.22;101067.94;10253701;28;20117;-76
2024/01/18 15:38:45;;;;;;;15.95;8.80;;;;;;;0.09;93.86;101063.63;10244425;28;20166;-78
2024/01/18 15:43:46;;;;;;;18.58;9.27;;;;;;;-0.13;93.72;101058.72;10229788;29;20059;-80
2024/01/18 15:48:47;;;;;;;16.50;9.00;;;;;;;-0.44;94.37;101007.31;10213805;29;20040;-81
2024/01/18 15:53:47;;;;;;;14.82;9.45;;;;;;;-0.26;94.38;101042.88;10220137;29;20047;-79
2024/01/18 15:58:48;;;;;;;14.80;8.52;;;;;;;-0.24;94.87;101043.63;10253481;28;20455;-78
2024/01/18 16:03:49;;;;;;;16.63;9.07;;;;;;;-0.24;94.73;101030.56;10253932;28;20047;-78
2024/01/18 16:08:50;;;;;;;14.02;8.30;;;;;;;-0.33;94.88;101023.22;10253855;28;20046;-77
2024/01/18 16:13:51;;;;;;;12.55;8.02;;;;;;;-0.36;95.27;101005.09;10252412;28;20428;-79
2024/01/18 16:18:51;;;;;;;13.10;7.25;;;;;;;-0.20;95.10;101013.00;10253463;28;20082;-74
2024/01/18 16:23:53;;;;;;;16.35;8.80;;;;;;;-0.21;95.21;101009.50;10244028;28;20043;-87
2024/01/18 16:28:54;;;;;;;14.05;8.10;;;;;;;-0.28;95.18;101003.78;10253915;29;20050;-75
2024/01/18 16:33:55;;;;;;;14.20;8.45;;;;;;;-0.32;95.18;100989.22;10250796;28;20218;-80
2024/01/18 16:38:56;;;;;;;12.27;7.90;;;;;;;-0.36;95.66;100981.63;10244202;28;20134;-73
2024/01/18 16:44:16;;;;;;;12.60;8.13;;;;;;;-0.41;96.13;100962.78;10230126;29;20059;-76
2024/01/18 16:49:17;;;;;;;12.98;6.97;;;;;;;-0.39;96.55;100964.38;10237838;28;20102;-80
2024/01/18 16:54:18;;;;;;;12.57;8.00;;;;;;;-0.52;97.52;100908.53;10240594;29;20043;-79
2024/01/18 16:59:19;;;;;;;15.25;7.22;;;;;;;-0.09;97.80;100961.88;10242122;28;20048;-80
2024/01/18 17:04:20;;;;;;;12.52;7.75;;;;;;;0.03;98.74;100959.47;10229577;28;20401;-81
2024/01/18 17:09:20;;;;;;;13.00;9.10;;;;;;;-0.03;100.00;100945.84;10247014;29;20551;-77
2024/01/18 17:19:40;;;;;;;13.68;8.68;;;;;;;0.09;100.00;100938.22;10251770;28;20411;-76
2024/01/18 17:24:41;;;;;;;11.50;7.82;;;;;;;0.07;100.00;100948.78;10251325;28;20046;-76
2024/01/18 17:29:42;;;;;;;12.73;7.82;;;;;;;0.04;100.00;100945.50;10250414;29;20540;-76
2024/01/18 17:34:43;;;;;;;15.23;8.15;;;;;;;-0.05;100.00;100923.34;10250018;28;20490;-76
2024/01/18 17:39:44;;;;;;;13.52;7.85;;;;;;;-0.08;100.00;100924.38;10242634;29;20051;-77
2024/01/18 17:44:45;;;;;;;15.05;7.80;;;;;;;-0.14;100.00;100921.25;10250101;29;20067;-77
2024/01/18 17:49:45;;;;;;;12.98;8.57;;;;;;;-0.11;100.00;100908.88;10250625;29;20039;-76
2024/01/18 17:54:46;;;;;;;14.77;9.10;;;;;;;-0.27;100.00;100859.28;10250299;29;20047;-76
2024/01/18 17:59:47;;;;;;;16.25;8.82;;;;;;;0.06;100.00;100892.25;10255083;28;20118;-77
2024/01/18 18:04:48;;;;;;;14.70;9.15;;;;;;;0.26;100.00;100904.16;10257632;28;20098;-77
2024/01/18 18:09:48;;;;;;;12.43;8.20;;;;;;;0.27;100.00;100884.09;10258207;28;20070;-77
2024/01/18 18:14:49;;;;;;;13.15;8.48;;;;;;;0.16;100.00;100848.16;10258549;28;20159;-77
2024/01/18 18:19:50;;;;;;;13.27;8.32;;;;;;;0.57;100.00;100891.91;10258072;28;20117;-77
2024/01/18 18:24:51;;;;;;;13.40;7.72;;;;;;;0.66;100.00;100888.78;10257465;28;20050;-77
2024/01/18 18:29:52;;;;;;;13.43;8.48;;;;;;;0.72;100.00;100869.25;10257347;28;20051;-77
2024/01/18 18:34:52;;;;;;;11.32;7.80;;;;;;;0.80;100.00;100877.47;10257164;28;20049;-77
2024/01/18 18:39:53;;;;;;;10.57;7.18;;;;;;;0.91;100.00;100873.28;10256770;28;20051;-77
2024/01/18 18:44:54;;;;;;;11.85;8.05;;;;;;;0.97;100.00;100860.78;10256293;28;20508;-76
2024/01/18 18:49:55;;;;;;;10.13;7.38;;;;;;;0.77;100.00;100807.06;10255456;29;20047;-76
2024/01/18 18:54:56;;;;;;;9.98;7.55;;;;;;;1.03;100.00;100836.84;10254551;29;20050;-76
2024/01/18 18:59:57;;;;;;;10.10;7.10;;;;;;;1.13;100.00;100836.16;10255695;28;20099;-76
2024/01/18 19:04:57;;;;;;;11.70;7.20;;;;;;;1.20;100.00;100834.03;10250546;28;20451;-75
2024/01/18 19:09:59;;;;;;;11.27;7.68;;;;;;;1.23;100.00;100822.53;10254063;28;20408;-76
2024/01/18 19:14:59;;;;;;;10.43;6.90;;;;;;;1.26;100.00;100814.50;10255116;29;20054;-74
2024/01/18 19:20:00;;;;;;;10.07;6.45;;;;;;;1.26;100.00;100807.47;10255699;29;20499;-73
2024/01/18 19:25:01;;;;;;;10.65;6.63;;;;;;;1.21;100.00;100800.84;10255500;29;20050;-74
2024/01/18 19:30:02;;;;;;;9.15;6.68;;;;;;;1.01;100.00;100747.16;10255155;29;20045;-73
2024/01/18 19:35:04;;;;;;;10.65;7.00;;;;;;;1.21;100.00;100777.28;10255552;28;20064;-73
2024/01/18 19:40:08;;;;;;;12.63;7.07;;;;;;;1.17;100.00;100778.41;10253768;29;20039;-72
2024/01/18 19:45:09;;;;;;;9.82;6.80;;;;;;;1.19;100.00;100774.75;10254498;29;20435;-72
2024/01/18 19:50:12;;;;;;;12.02;6.70;;;;;;;1.20;100.00;100779.06;10254461;29;20053;-74
2024/01/18 19:55:13;;;;;;;11.95;7.10;;;;;;;1.26;100.00;100786.53;10254180;29;20047;-74
2024/01/18 20:00:15;;;;;;;11.57;6.97;;;;;;;1.24;100.00;100777.94;10253251;29;20032;-73
2024/01/18 20:05:15;;;;;;;10.85;6.75;;;;;;;1.03;100.00;100730.41;10253240;29;20054;-73
2024/01/18 20:10:17;;;;;;;8.70;6.45;;;;;;;1.04;100.00;100720.78;10254077;29;20042;-74
2024/01/18 20:15:17;;;;;;;11.25;6.90;;;;;;;1.34;100.00;100755.47;10254002;29;20047;-74
2024/01/18 20:20:18;;;;;;;11.13;7.18;;;;;;;1.24;100.00;100725.59;10252495;28;20043;-73
2024/01/18 20:25:21;;;;;;;9.50;6.28;;;;;;;1.33;100.00;100748.56;10252641;29;20047;-74
2024/01/18 20:30:22;;;;;;;9.77;6.47;;;;;;;1.07;100.00;100691.81;10253535;28;20086;-74
2024/01/18 20:35:23;;;;;;;9.85;6.25;;;;;;;1.08;100.00;100683.03;10252061;29;20122;-74
2024/01/18 20:40:27;;;;;;;11.55;6.50;;;;;;;1.45;100.00;100733.84;10251919;29;20053;-73
2024/01/18 20:45:28;;;;;;;13.18;6.45;;;;;;;1.12;100.00;100674.88;10252899;28;20059;-74
2024/01/18 20:50:29;;;;;;;9.57;6.88;;;;;;;1.14;100.00;100661.72;10252321;29;20508;-73
2024/01/18 20:55:30;;;;;;;13.10;6.93;;;;;;;1.35;100.00;100689.09;10252144;29;20067;-73
2024/01/18 21:00:31;;;;;;;12.95;6.82;;;;;;;1.09;100.00;100640.25;10251396;29;20098;-73
2024/01/18 21:05:32;;;;;;;10.85;7.00;;;;;;;1.36;100.00;100675.06;10251838;29;20046;-73
2024/01/18 21:10:34;;;;;;;11.50;7.10;;;;;;;1.43;100.00;100674.66;10249949;29;20046;-73
2024/01/18 21:15:35;;;;;;;9.88;6.75;;;;;;;1.50;100.00;100668.09;10251182;29;20039;-73
2024/01/18 21:20:35;;;;;;;11.63;6.75;;;;;;;1.47;100.00;100658.66;10251078;29;20504;-73
2024/01/18 21:25:36;;;;;;;12.20;7.28;;;;;;;1.50;100.00;100652.38;10251459;29;20097;-73
2024/01/18 21:30:37;;;;;;;12.55;7.32;;;;;;;1.59;100.00;100662.25;10252109;28;20051;-73
2024/01/18 21:35:38;;;;;;;12.50;7.47;;;;;;;1.57;100.00;100638.75;10258433;28;20136;-73
2024/01/18 21:40:38;;;;;;;14.05;7.93;;;;;;;1.60;100.00;100625.47;10258611;29;20054;-73
2024/01/18 21:45:39;;;;;;;11.45;7.80;;;;;;;1.58;100.00;100603.78;10258471;29;20077;-73
2024/01/18 21:50:40;;;;;;;14.48;7.82;;;;;;;1.62;100.00;100611.44;10258521;29;20133;-73
2024/01/18 21:55:41;;;;;;;14.32;7.68;;;;;;;1.48;100.00;100576.56;10258430;29;20039;-73
2024/01/18 22:01:00;;;;;;;14.00;7.47;;;;;;;1.66;100.00;100603.25;10258674;29;20039;-73
2024/01/18 22:06:02;;;;;;;14.98;8.15;;;;;;;1.68;100.00;100601.38;10258913;28;20044;-73
2024/01/18 22:11:04;;;;;;;13.75;8.43;;;;;;;1.65;100.00;100580.66;10257631;29;20185;-73
2024/01/18 22:16:07;;;;;;;13.20;8.20;;;;;;;1.73;100.00;100586.19;10258024;29;20075;-73
2024/01/18 22:21:07;;;;;;;12.63;8.13;;;;;;;1.73;100.00;100567.00;10257788;29;20511;-73
2024/01/18 22:26:08;;;;;;;13.20;8.20;;;;;;;1.66;100.00;100553.50;10257467;29;20043;-73
2024/01/18 22:31:10;;;;;;;14.85;8.23;;;;;;;1.62;100.00;100541.59;10256789;29;20050;-73
2024/01/18 22:36:10;;;;;;;10.68;6.95;;;;;;;1.47;100.00;100492.91;10256716;29;20039;-72
2024/01/18 22:41:11;;;;;;;12.48;8.00;;;;;;;1.65;100.00;100540.53;10256741;29;20039;-72
2024/01/18 22:46:12;;;;;;;12.13;7.93;;;;;;;1.36;100.00;100483.16;10256407;28;20423;-72
2024/01/18 22:51:13;;;;;;;11.52;7.30;;;;;;;1.33;100.00;100478.97;10257099;29;20039;-73
2024/01/18 22:56:14;;;;;;;10.32;7.55;;;;;;;1.64;100.00;100528.38;10256521;29;20407;-73
2024/01/18 23:01:15;;;;;;;10.93;7.40;;;;;;;1.60;100.00;100528.56;10255642;29;20031;-72
2024/01/18 23:06:15;;;;;;;10.43;7.03;;;;;;;1.59;100.00;100526.09;10256004;28;20098;-72
2024/01/18 23:11:16;;;;;;;10.85;7.32;;;;;;;1.62;100.00;100536.34;10255476;29;20050;-73
2024/01/18 23:16:17;;;;;;;9.68;6.70;;;;;;;1.64;100.00;100515.28;10255752;29;20526;-72
2024/01/18 23:21:19;;;;;;;14.05;6.70;;;;;;;1.57;100.00;100512.25;10255595;29;20062;-72
2024/01/18 23:26:19;;;;;;;10.32;6.82;;;;;;;1.58;100.00;100491.19;10255347;29;20055;-72
2024/01/18 23:31:20;;;;;;;11.20;6.75;;;;;;;1.68;100.00;100503.66;10255678;29;20051;-73
2024/01/18 23:36:21;;;;;;;11.68;6.70;;;;;;;1.68;100.00;100503.66;10254389;29;20046;-72
2024/01/18 23:41:22;;;;;;;11.48;6.68;;;;;;;1.67;100.00;100497.56;10254453;29;20074;-72
2024/01/18 23:46:24;;;;;;;11.68;5.97;;;;;;;1.45;100.00;100450.28;10254015;28;20053;-72
2024/01/18 23:51:26;;;;;;;10.45;6.15;;;;;;;1.63;100.00;100456.00;10254721;29;20051;-72
2024/01/18 23:56:27;;;;;;;10.35;6.70;;;;;;;1.54;100.00;100426.06;10253720;28;20141;-72
